sensor_id;sensor_type;location;lat;lon;timestamp;P1;durP1;ratioP1;P2;durP2;ratioP2
50745;SDS011;36711;51.972;21.204;2022-09-03T00:00:51;9.30;;;4.80;;
50745;SDS011;36711;51.972;21.204;2022-09-03T00:03:26;10.70;;;4.30;;
50745;SDS011;36711;51.972;21.204;2022-09-03T00:08:26;8.90;;;4.00;;
50745;SDS011;36711;51.972;21.204;2022-09-03T00:11:00;7.80;;;3.80;;
50745;SDS011;36711;51.972;21.204;2022-09-03T00:13:32;8.00;;;3.80;;
50745;SDS011;36711;51.972;21.204;2022-09-03T00:16:02;6.90;;;3.90;;
50745;SDS011;36711;51.972;21.204;2022-09-03T00:18:41;8.20;;;4.30;;
50745;SDS011;36711;51.972;21.204;2022-09-03T00:21:45;10.90;;;4.20;;
50745;SDS011;36711;51.972;21.204;2022-09-03T00:24:04;9.90;;;4.10;;
50745;SDS011;36711;51.972;21.204;2022-09-03T00:26:42;8.80;;;4.60;;
50745;SDS011;36711;51.972;21.204;2022-09-03T00:29:15;7.10;;;3.70;;
50745;SDS011;36711;51.972;21.204;2022-09-03T00:31:52;10.00;;;4.20;;
50745;SDS011;36711;51.972;21.204;2022-09-03T00:34:28;7.50;;;3.90;;
50745;SDS011;36711;51.972;21.204;2022-09-03T00:36:57;6.60;;;3.70;;
50745;SDS011;36711;51.972;21.204;2022-09-03T00:39:25;8.10;;;3.80;;
50745;SDS011;36711;51.972;21.204;2022-09-03T00:44:47;8.60;;;3.50;;
50745;SDS011;36711;51.972;21.204;2022-09-03T00:50:28;8.20;;;3.60;;
50745;SDS011;36711;51.972;21.204;2022-09-03T00:53:12;6.00;;;3.70;;
50745;SDS011;36711;51.972;21.204;2022-09-03T00:58:30;9.40;;;4.10;;
50745;SDS011;36711;51.972;21.204;2022-09-03T01:01:04;6.60;;;4.00;;
50745;SDS011;36711;51.972;21.204;2022-09-03T01:11:19;8.80;;;3.30;;
50745;SDS011;36711;51.972;21.204;2022-09-03T01:13:55;9.40;;;3.50;;
50745;SDS011;36711;51.972;21.204;2022-09-03T01:16:31;7.10;;;3.60;;
50745;SDS011;36711;51.972;21.204;2022-09-03T01:22:37;9.50;;;3.90;;
50745;SDS011;36711;51.972;21.204;2022-09-03T01:32:33;8.60;;;3.30;;
50745;SDS011;36711;51.972;21.204;2022-09-03T01:35:22;7.40;;;3.10;;
50745;SDS011;36711;51.972;21.204;2022-09-03T01:43:39;9.80;;;3.20;;
50745;SDS011;36711;51.972;21.204;2022-09-03T01:46:12;9.20;;;3.80;;
50745;SDS011;36711;51.972;21.204;2022-09-03T02:01:40;6.00;;;4.10;;
50745;SDS011;36711;51.972;21.204;2022-09-03T02:04:17;5.90;;;4.30;;
50745;SDS011;36711;51.972;21.204;2022-09-03T02:06:46;8.70;;;5.30;;
50745;SDS011;36711;51.972;21.204;2022-09-03T02:09:15;8.70;;;5.60;;
50745;SDS011;36711;51.972;21.204;2022-09-03T02:11:45;13.10;;;6.40;;
50745;SDS011;36711;51.972;21.204;2022-09-03T02:14:13;16.10;;;6.80;;
50745;SDS011;36711;51.972;21.204;2022-09-03T02:16:40;8.90;;;6.00;;
50745;SDS011;36711;51.972;21.204;2022-09-03T02:19:11;8.80;;;5.20;;
50745;SDS011;36711;51.972;21.204;2022-09-03T02:21:43;11.40;;;5.90;;
50745;SDS011;36711;51.972;21.204;2022-09-03T02:24:12;7.90;;;5.10;;
50745;SDS011;36711;51.972;21.204;2022-09-03T02:26:40;14.10;;;5.10;;
50745;SDS011;36711;51.972;21.204;2022-09-03T02:29:07;6.70;;;4.10;;
50745;SDS011;36711;51.972;21.204;2022-09-03T02:31:35;6.00;;;3.80;;
50745;SDS011;36711;51.972;21.204;2022-09-03T02:34:03;7.60;;;3.80;;
50745;SDS011;36711;51.972;21.204;2022-09-03T02:36:35;8.40;;;4.30;;
50745;SDS011;36711;51.972;21.204;2022-09-03T02:39:03;9.90;;;4.10;;
50745;SDS011;36711;51.972;21.204;2022-09-03T02:41:31;7.20;;;4.20;;
50745;SDS011;36711;51.972;21.204;2022-09-03T02:46:40;8.20;;;4.70;;
50745;SDS011;36711;51.972;21.204;2022-09-03T02:49:09;9.00;;;4.20;;
50745;SDS011;36711;51.972;21.204;2022-09-03T02:51:38;9.00;;;4.60;;
50745;SDS011;36711;51.972;21.204;2022-09-03T02:54:09;8.20;;;4.30;;
50745;SDS011;36711;51.972;21.204;2022-09-03T02:56:37;10.60;;;4.10;;
50745;SDS011;36711;51.972;21.204;2022-09-03T02:59:05;9.80;;;4.50;;
50745;SDS011;36711;51.972;21.204;2022-09-03T03:01:34;8.30;;;4.30;;
50745;SDS011;36711;51.972;21.204;2022-09-03T03:04:03;6.60;;;4.30;;
50745;SDS011;36711;51.972;21.204;2022-09-03T03:06:30;9.50;;;4.70;;
50745;SDS011;36711;51.972;21.204;2022-09-03T03:08:59;9.80;;;4.80;;
50745;SDS011;36711;51.972;21.204;2022-09-03T03:11:30;13.70;;;5.00;;
50745;SDS011;36711;51.972;21.204;2022-09-03T03:13:58;11.20;;;4.90;;
50745;SDS011;36711;51.972;21.204;2022-09-03T03:16:26;14.50;;;5.00;;
50745;SDS011;36711;51.972;21.204;2022-09-03T03:18:55;10.30;;;5.00;;
50745;SDS011;36711;51.972;21.204;2022-09-03T03:21:23;12.40;;;4.90;;
50745;SDS011;36711;51.972;21.204;2022-09-03T03:23:51;8.30;;;3.50;;
50745;SDS011;36711;51.972;21.204;2022-09-03T03:26:19;10.70;;;4.20;;
50745;SDS011;36711;51.972;21.204;2022-09-03T03:28:47;8.90;;;3.70;;
50745;SDS011;36711;51.972;21.204;2022-09-03T03:31:16;8.60;;;4.10;;
50745;SDS011;36711;51.972;21.204;2022-09-03T03:33:44;14.00;;;4.60;;
50745;SDS011;36711;51.972;21.204;2022-09-03T03:36:16;7.60;;;4.50;;
50745;SDS011;36711;51.972;21.204;2022-09-03T03:38:44;8.10;;;4.00;;
50745;SDS011;36711;51.972;21.204;2022-09-03T03:41:13;9.20;;;4.50;;
50745;SDS011;36711;51.972;21.204;2022-09-03T03:43:42;10.20;;;4.80;;
50745;SDS011;36711;51.972;21.204;2022-09-03T03:46:10;11.10;;;4.50;;
50745;SDS011;36711;51.972;21.204;2022-09-03T03:48:37;6.60;;;4.00;;
50745;SDS011;36711;51.972;21.204;2022-09-03T03:51:06;13.80;;;4.30;;
50745;SDS011;36711;51.972;21.204;2022-09-03T03:53:35;9.50;;;4.20;;
50745;SDS011;36711;51.972;21.204;2022-09-03T03:56:07;13.70;;;4.70;;
50745;SDS011;36711;51.972;21.204;2022-09-03T03:58:39;7.40;;;4.30;;
50745;SDS011;36711;51.972;21.204;2022-09-03T04:01:14;9.70;;;4.50;;
50745;SDS011;36711;51.972;21.204;2022-09-03T04:03:42;9.00;;;4.60;;
50745;SDS011;36711;51.972;21.204;2022-09-03T04:06:11;8.80;;;4.80;;
50745;SDS011;36711;51.972;21.204;2022-09-03T04:08:40;8.40;;;4.30;;
50745;SDS011;36711;51.972;21.204;2022-09-03T04:11:08;8.10;;;4.30;;
50745;SDS011;36711;51.972;21.204;2022-09-03T04:13:37;8.30;;;4.20;;
50745;SDS011;36711;51.972;21.204;2022-09-03T04:16:06;10.50;;;4.40;;
50745;SDS011;36711;51.972;21.204;2022-09-03T04:18:35;8.50;;;4.10;;
50745;SDS011;36711;51.972;21.204;2022-09-03T04:21:04;6.80;;;4.10;;
50745;SDS011;36711;51.972;21.204;2022-09-03T04:23:35;10.20;;;3.90;;
50745;SDS011;36711;51.972;21.204;2022-09-03T04:26:03;9.20;;;4.20;;
50745;SDS011;36711;51.972;21.204;2022-09-03T04:28:32;7.20;;;3.80;;
50745;SDS011;36711;51.972;21.204;2022-09-03T04:31:03;9.80;;;4.10;;
50745;SDS011;36711;51.972;21.204;2022-09-03T04:33:31;6.10;;;3.70;;
50745;SDS011;36711;51.972;21.204;2022-09-03T04:36:09;8.50;;;3.60;;
50745;SDS011;36711;51.972;21.204;2022-09-03T04:38:38;6.30;;;3.60;;
50745;SDS011;36711;51.972;21.204;2022-09-03T04:41:07;7.10;;;3.50;;
50745;SDS011;36711;51.972;21.204;2022-09-03T04:43:35;6.80;;;3.30;;
50745;SDS011;36711;51.972;21.204;2022-09-03T04:46:04;9.90;;;3.70;;
50745;SDS011;36711;51.972;21.204;2022-09-03T04:48:33;13.20;;;3.40;;
50745;SDS011;36711;51.972;21.204;2022-09-03T04:51:08;7.20;;;3.80;;
50745;SDS011;36711;51.972;21.204;2022-09-03T04:53:37;11.20;;;4.20;;
50745;SDS011;36711;51.972;21.204;2022-09-03T04:56:12;8.30;;;4.30;;
50745;SDS011;36711;51.972;21.204;2022-09-03T04:58:40;7.60;;;3.30;;
50745;SDS011;36711;51.972;21.204;2022-09-03T05:01:12;6.60;;;3.40;;
50745;SDS011;36711;51.972;21.204;2022-09-03T05:03:42;5.40;;;3.00;;
50745;SDS011;36711;51.972;21.204;2022-09-03T05:06:09;5.80;;;3.40;;
50745;SDS011;36711;51.972;21.204;2022-09-03T05:08:37;8.20;;;3.10;;
50745;SDS011;36711;51.972;21.204;2022-09-03T05:11:05;7.80;;;3.40;;
50745;SDS011;36711;51.972;21.204;2022-09-03T05:13:34;6.70;;;3.50;;
50745;SDS011;36711;51.972;21.204;2022-09-03T05:16:04;7.20;;;3.60;;
50745;SDS011;36711;51.972;21.204;2022-09-03T05:18:33;8.60;;;3.70;;
50745;SDS011;36711;51.972;21.204;2022-09-03T05:21:07;6.10;;;3.70;;
50745;SDS011;36711;51.972;21.204;2022-09-03T05:23:36;6.40;;;3.20;;
50745;SDS011;36711;51.972;21.204;2022-09-03T05:26:06;7.10;;;3.10;;
50745;SDS011;36711;51.972;21.204;2022-09-03T05:28:38;5.90;;;3.00;;
50745;SDS011;36711;51.972;21.204;2022-09-03T05:31:07;6.00;;;3.30;;
50745;SDS011;36711;51.972;21.204;2022-09-03T05:33:38;9.80;;;2.90;;
50745;SDS011;36711;51.972;21.204;2022-09-03T05:36:07;8.70;;;3.10;;
50745;SDS011;36711;51.972;21.204;2022-09-03T05:38:36;7.00;;;3.10;;
50745;SDS011;36711;51.972;21.204;2022-09-03T05:41:05;6.30;;;2.80;;
50745;SDS011;36711;51.972;21.204;2022-09-03T05:43:33;6.20;;;3.30;;
50745;SDS011;36711;51.972;21.204;2022-09-03T05:46:03;6.90;;;3.50;;
50745;SDS011;36711;51.972;21.204;2022-09-03T05:48:32;5.20;;;2.80;;
50745;SDS011;36711;51.972;21.204;2022-09-03T05:51:01;4.90;;;2.80;;
50745;SDS011;36711;51.972;21.204;2022-09-03T05:53:30;4.60;;;2.60;;
50745;SDS011;36711;51.972;21.204;2022-09-03T05:55:59;8.20;;;2.90;;
50745;SDS011;36711;51.972;21.204;2022-09-03T05:58:31;4.90;;;2.40;;
50745;SDS011;36711;51.972;21.204;2022-09-03T06:00:59;7.80;;;3.00;;
50745;SDS011;36711;51.972;21.204;2022-09-03T06:03:26;7.80;;;2.60;;
50745;SDS011;36711;51.972;21.204;2022-09-03T06:05:54;3.60;;;2.30;;
50745;SDS011;36711;51.972;21.204;2022-09-03T06:08:22;6.90;;;2.50;;
50745;SDS011;36711;51.972;21.204;2022-09-03T06:10:50;2.80;;;2.10;;
50745;SDS011;36711;51.972;21.204;2022-09-03T06:13:23;3.90;;;2.30;;
50745;SDS011;36711;51.972;21.204;2022-09-03T06:15:58;6.90;;;2.20;;
50745;SDS011;36711;51.972;21.204;2022-09-03T06:18:26;6.80;;;2.30;;
50745;SDS011;36711;51.972;21.204;2022-09-03T06:20:54;4.70;;;2.30;;
50745;SDS011;36711;51.972;21.204;2022-09-03T06:23:22;3.50;;;2.00;;
50745;SDS011;36711;51.972;21.204;2022-09-03T06:28:35;6.90;;;2.20;;
50745;SDS011;36711;51.972;21.204;2022-09-03T06:31:05;4.00;;;2.30;;
50745;SDS011;36711;51.972;21.204;2022-09-03T06:33:33;7.60;;;2.10;;
50745;SDS011;36711;51.972;21.204;2022-09-03T06:36:01;2.90;;;1.70;;
50745;SDS011;36711;51.972;21.204;2022-09-03T06:38:35;4.50;;;1.70;;
50745;SDS011;36711;51.972;21.204;2022-09-03T06:41:03;5.80;;;1.50;;
50745;SDS011;36711;51.972;21.204;2022-09-03T06:43:32;4.50;;;1.70;;
50745;SDS011;36711;51.972;21.204;2022-09-03T06:46:01;3.70;;;1.60;;
50745;SDS011;36711;51.972;21.204;2022-09-03T06:48:30;4.60;;;1.70;;
50745;SDS011;36711;51.972;21.204;2022-09-03T06:51:02;3.60;;;1.50;;
50745;SDS011;36711;51.972;21.204;2022-09-03T06:53:31;3.00;;;1.70;;
50745;SDS011;36711;51.972;21.204;2022-09-03T06:56:00;3.50;;;2.10;;
50745;SDS011;36711;51.972;21.204;2022-09-03T06:58:28;3.40;;;1.90;;
50745;SDS011;36711;51.972;21.204;2022-09-03T07:01:01;5.20;;;1.80;;
50745;SDS011;36711;51.972;21.204;2022-09-03T07:03:29;2.00;;;1.50;;
50745;SDS011;36711;51.972;21.204;2022-09-03T07:06:07;4.70;;;1.70;;
50745;SDS011;36711;51.972;21.204;2022-09-03T07:08:34;3.20;;;1.60;;
50745;SDS011;36711;51.972;21.204;2022-09-03T07:11:04;6.40;;;2.00;;
50745;SDS011;36711;51.972;21.204;2022-09-03T07:13:35;2.80;;;1.70;;
50745;SDS011;36711;51.972;21.204;2022-09-03T07:16:05;2.70;;;1.60;;
50745;SDS011;36711;51.972;21.204;2022-09-03T07:18:33;3.40;;;1.80;;
50745;SDS011;36711;51.972;21.204;2022-09-03T07:21:02;6.60;;;1.60;;
50745;SDS011;36711;51.972;21.204;2022-09-03T07:23:30;4.80;;;1.50;;
50745;SDS011;36711;51.972;21.204;2022-09-03T07:25:59;4.20;;;1.80;;
50745;SDS011;36711;51.972;21.204;2022-09-03T07:28:27;6.40;;;1.90;;
50745;SDS011;36711;51.972;21.204;2022-09-03T07:30:59;4.00;;;1.90;;
50745;SDS011;36711;51.972;21.204;2022-09-03T07:33:27;5.40;;;2.00;;
50745;SDS011;36711;51.972;21.204;2022-09-03T07:36:04;5.30;;;1.90;;
50745;SDS011;36711;51.972;21.204;2022-09-03T07:38:33;3.60;;;1.80;;
50745;SDS011;36711;51.972;21.204;2022-09-03T07:41:01;3.20;;;1.60;;
50745;SDS011;36711;51.972;21.204;2022-09-03T07:43:32;2.40;;;1.40;;
50745;SDS011;36711;51.972;21.204;2022-09-03T07:46:00;5.70;;;1.70;;
50745;SDS011;36711;51.972;21.204;2022-09-03T07:48:28;2.50;;;1.70;;
50745;SDS011;36711;51.972;21.204;2022-09-03T07:51:01;2.90;;;1.80;;
50745;SDS011;36711;51.972;21.204;2022-09-03T07:53:29;4.80;;;1.60;;
50745;SDS011;36711;51.972;21.204;2022-09-03T07:56:04;4.80;;;2.10;;
50745;SDS011;36711;51.972;21.204;2022-09-03T07:58:32;4.60;;;1.50;;
50745;SDS011;36711;51.972;21.204;2022-09-03T08:01:04;3.60;;;2.20;;
50745;SDS011;36711;51.972;21.204;2022-09-03T08:03:32;2.60;;;1.20;;
50745;SDS011;36711;51.972;21.204;2022-09-03T08:06:04;4.70;;;1.30;;
50745;SDS011;36711;51.972;21.204;2022-09-03T08:08:32;7.50;;;1.30;;
50745;SDS011;36711;51.972;21.204;2022-09-03T08:11:03;2.00;;;1.30;;
50745;SDS011;36711;51.972;21.204;2022-09-03T08:13:33;2.90;;;1.20;;
50745;SDS011;36711;51.972;21.204;2022-09-03T08:16:00;2.90;;;1.10;;
50745;SDS011;36711;51.972;21.204;2022-09-03T08:18:28;2.60;;;1.10;;
50745;SDS011;36711;51.972;21.204;2022-09-03T08:20:59;11.20;;;1.10;;
50745;SDS011;36711;51.972;21.204;2022-09-03T08:23:26;2.10;;;0.70;;
50745;SDS011;36711;51.972;21.204;2022-09-03T08:25:58;0.80;;;0.50;;
50745;SDS011;36711;51.972;21.204;2022-09-03T08:28:26;2.60;;;0.70;;
50745;SDS011;36711;51.972;21.204;2022-09-03T08:30:54;1.40;;;0.60;;
50745;SDS011;36711;51.972;21.204;2022-09-03T08:33:22;3.70;;;0.50;;
50745;SDS011;36711;51.972;21.204;2022-09-03T08:36:05;3.90;;;0.70;;
50745;SDS011;36711;51.972;21.204;2022-09-03T08:38:33;2.40;;;0.60;;
50745;SDS011;36711;51.972;21.204;2022-09-03T08:41:02;3.70;;;0.50;;
50745;SDS011;36711;51.972;21.204;2022-09-03T08:43:30;1.50;;;0.50;;
50745;SDS011;36711;51.972;21.204;2022-09-03T08:46:00;1.10;;;0.60;;
50745;SDS011;36711;51.972;21.204;2022-09-03T08:48:28;1.00;;;0.60;;
50745;SDS011;36711;51.972;21.204;2022-09-03T08:50:58;1.90;;;0.60;;
50745;SDS011;36711;51.972;21.204;2022-09-03T08:56:02;2.20;;;0.70;;
50745;SDS011;36711;51.972;21.204;2022-09-03T08:58:32;6.00;;;0.60;;
50745;SDS011;36711;51.972;21.204;2022-09-03T09:04:14;4.00;;;0.50;;
50745;SDS011;36711;51.972;21.204;2022-09-03T09:06:55;2.90;;;0.70;;
50745;SDS011;36711;51.972;21.204;2022-09-03T09:23:19;1.10;;;0.60;;
50745;SDS011;36711;51.972;21.204;2022-09-03T09:25:39;2.30;;;0.50;;
50745;SDS011;36711;51.972;21.204;2022-09-03T09:28:20;1.50;;;0.50;;
50745;SDS011;36711;51.972;21.204;2022-09-03T09:30:53;0.80;;;0.40;;
50745;SDS011;36711;51.972;21.204;2022-09-03T09:33:21;6.60;;;0.50;;
50745;SDS011;36711;51.972;21.204;2022-09-03T09:35:51;3.10;;;0.40;;
50745;SDS011;36711;51.972;21.204;2022-09-03T09:38:28;2.00;;;0.60;;
50745;SDS011;36711;51.972;21.204;2022-09-03T09:41:06;0.60;;;0.40;;
50745;SDS011;36711;51.972;21.204;2022-09-03T09:43:35;0.80;;;0.50;;
50745;SDS011;36711;51.972;21.204;2022-09-03T09:46:12;2.30;;;0.50;;
50745;SDS011;36711;51.972;21.204;2022-09-03T09:53:44;22.00;;;1.10;;
50745;SDS011;36711;51.972;21.204;2022-09-03T09:56:22;1.30;;;0.40;;
50745;SDS011;36711;51.972;21.204;2022-09-03T09:59:00;0.50;;;0.40;;
50745;SDS011;36711;51.972;21.204;2022-09-03T10:01:28;3.00;;;0.70;;
50745;SDS011;36711;51.972;21.204;2022-09-03T10:03:59;1.40;;;0.70;;
50745;SDS011;36711;51.972;21.204;2022-09-03T10:06:27;2.70;;;0.90;;
50745;SDS011;36711;51.972;21.204;2022-09-03T10:09:15;3.40;;;0.90;;
50745;SDS011;36711;51.972;21.204;2022-09-03T10:11:50;11.30;;;1.60;;
50745;SDS011;36711;51.972;21.204;2022-09-03T10:14:29;1.10;;;1.00;;
50745;SDS011;36711;51.972;21.204;2022-09-03T10:20:08;1.30;;;1.20;;
50745;SDS011;36711;51.972;21.204;2022-09-03T10:23:01;1.30;;;1.20;;
50745;SDS011;36711;51.972;21.204;2022-09-03T10:25:37;3.80;;;1.30;;
50745;SDS011;36711;51.972;21.204;2022-09-03T10:28:07;3.50;;;1.30;;
50745;SDS011;36711;51.972;21.204;2022-09-03T10:30:44;3.40;;;1.40;;
50745;SDS011;36711;51.972;21.204;2022-09-03T10:33:39;2.30;;;1.10;;
50745;SDS011;36711;51.972;21.204;2022-09-03T10:36:20;2.20;;;1.20;;
50745;SDS011;36711;51.972;21.204;2022-09-03T10:38:52;2.00;;;1.10;;
50745;SDS011;36711;51.972;21.204;2022-09-03T10:44:30;1.10;;;1.00;;
50745;SDS011;36711;51.972;21.204;2022-09-03T10:54:52;1.60;;;0.80;;
50745;SDS011;36711;51.972;21.204;2022-09-03T11:00:08;2.50;;;0.60;;
50745;SDS011;36711;51.972;21.204;2022-09-03T11:02:56;2.20;;;0.80;;
50745;SDS011;36711;51.972;21.204;2022-09-03T11:05:39;1.00;;;0.70;;
50745;SDS011;36711;51.972;21.204;2022-09-03T11:08:11;3.10;;;0.70;;
50745;SDS011;36711;51.972;21.204;2022-09-03T11:10:41;9.50;;;1.10;;
50745;SDS011;36711;51.972;21.204;2022-09-03T11:13:19;10.10;;;1.10;;
50745;SDS011;36711;51.972;21.204;2022-09-03T11:15:50;2.50;;;0.60;;
50745;SDS011;36711;51.972;21.204;2022-09-03T11:20:50;1.40;;;0.50;;
50745;SDS011;36711;51.972;21.204;2022-09-03T11:23:21;1.40;;;0.60;;
50745;SDS011;36711;51.972;21.204;2022-09-03T11:25:55;2.90;;;0.50;;
50745;SDS011;36711;51.972;21.204;2022-09-03T11:33:45;1.30;;;0.30;;
50745;SDS011;36711;51.972;21.204;2022-09-03T11:36:28;1.60;;;0.50;;
50745;SDS011;36711;51.972;21.204;2022-09-03T11:38:57;3.10;;;0.50;;
50745;SDS011;36711;51.972;21.204;2022-09-03T11:41:27;1.70;;;0.50;;
50745;SDS011;36711;51.972;21.204;2022-09-03T11:44:16;0.80;;;0.30;;
50745;SDS011;36711;51.972;21.204;2022-09-03T11:46:52;4.00;;;0.40;;
50745;SDS011;36711;51.972;21.204;2022-09-03T11:49:30;6.80;;;0.60;;
50745;SDS011;36711;51.972;21.204;2022-09-03T11:51:59;1.30;;;0.70;;
50745;SDS011;36711;51.972;21.204;2022-09-03T11:54:30;1.00;;;0.60;;
50745;SDS011;36711;51.972;21.204;2022-09-03T11:57:33;4.40;;;0.50;;
50745;SDS011;36711;51.972;21.204;2022-09-03T11:59:52;6.50;;;0.50;;
50745;SDS011;36711;51.972;21.204;2022-09-03T12:10:35;4.10;;;0.80;;
50745;SDS011;36711;51.972;21.204;2022-09-03T12:13:15;2.30;;;0.50;;
50745;SDS011;36711;51.972;21.204;2022-09-03T12:18:39;1.70;;;0.40;;
50745;SDS011;36711;51.972;21.204;2022-09-03T12:21:15;2.10;;;0.80;;
50745;SDS011;36711;51.972;21.204;2022-09-03T12:23:47;6.30;;;1.50;;
50745;SDS011;36711;51.972;21.204;2022-09-03T12:26:25;2.50;;;0.50;;
50745;SDS011;36711;51.972;21.204;2022-09-03T12:28:55;1.20;;;0.40;;
50745;SDS011;36711;51.972;21.204;2022-09-03T12:31:29;3.20;;;0.50;;
50745;SDS011;36711;51.972;21.204;2022-09-03T12:33:58;1.20;;;0.30;;
50745;SDS011;36711;51.972;21.204;2022-09-03T12:36:37;2.80;;;0.50;;
50745;SDS011;36711;51.972;21.204;2022-09-03T12:39:18;2.40;;;0.40;;
50745;SDS011;36711;51.972;21.204;2022-09-03T12:42:07;1.70;;;0.40;;
50745;SDS011;36711;51.972;21.204;2022-09-03T12:50:04;1.00;;;0.40;;
50745;SDS011;36711;51.972;21.204;2022-09-03T12:52:44;0.60;;;0.50;;
50745;SDS011;36711;51.972;21.204;2022-09-03T12:55:20;1.20;;;0.50;;
50745;SDS011;36711;51.972;21.204;2022-09-03T13:01:14;7.00;;;0.80;;
50745;SDS011;36711;51.972;21.204;2022-09-03T13:03:45;10.20;;;0.70;;
50745;SDS011;36711;51.972;21.204;2022-09-03T13:06:14;3.40;;;0.60;;
50745;SDS011;36711;51.972;21.204;2022-09-03T13:08:52;0.60;;;0.50;;
50745;SDS011;36711;51.972;21.204;2022-09-03T13:11:23;1.00;;;0.40;;
50745;SDS011;36711;51.972;21.204;2022-09-03T13:13:52;3.70;;;0.50;;
50745;SDS011;36711;51.972;21.204;2022-09-03T13:19:29;1.00;;;0.50;;
50745;SDS011;36711;51.972;21.204;2022-09-03T13:27:41;1.00;;;0.60;;
50745;SDS011;36711;51.972;21.204;2022-09-03T13:32:41;0.80;;;0.80;;
50745;SDS011;36711;51.972;21.204;2022-09-03T13:37:48;7.30;;;0.60;;
50745;SDS011;36711;51.972;21.204;2022-09-03T13:43:20;2.90;;;0.70;;
50745;SDS011;36711;51.972;21.204;2022-09-03T13:45:54;2.40;;;0.70;;
50745;SDS011;36711;51.972;21.204;2022-09-03T13:48:31;2.30;;;0.60;;
50745;SDS011;36711;51.972;21.204;2022-09-03T13:51:28;0.70;;;0.60;;
50745;SDS011;36711;51.972;21.204;2022-09-03T13:54:06;2.70;;;0.90;;
50745;SDS011;36711;51.972;21.204;2022-09-03T13:59:24;4.20;;;0.90;;
50745;SDS011;36711;51.972;21.204;2022-09-03T14:02:06;2.40;;;0.80;;
50745;SDS011;36711;51.972;21.204;2022-09-03T14:10:18;21.80;;;1.60;;
50745;SDS011;36711;51.972;21.204;2022-09-03T14:12:59;1.40;;;0.90;;
50745;SDS011;36711;51.972;21.204;2022-09-03T14:15:35;4.70;;;0.90;;
50745;SDS011;36711;51.972;21.204;2022-09-03T14:18:32;1.00;;;0.90;;
50745;SDS011;36711;51.972;21.204;2022-09-03T14:21:02;3.90;;;1.10;;
50745;SDS011;36711;51.972;21.204;2022-09-03T14:23:45;5.40;;;1.20;;
50745;SDS011;36711;51.972;21.204;2022-09-03T14:26:15;4.20;;;1.10;;
50745;SDS011;36711;51.972;21.204;2022-09-03T14:28:45;2.90;;;1.10;;
50745;SDS011;36711;51.972;21.204;2022-09-03T14:34:01;3.60;;;1.10;;
50745;SDS011;36711;51.972;21.204;2022-09-03T14:39:02;1.80;;;1.40;;
50745;SDS011;36711;51.972;21.204;2022-09-03T14:44:21;4.00;;;1.20;;
50745;SDS011;36711;51.972;21.204;2022-09-03T14:47:09;3.50;;;1.10;;
50745;SDS011;36711;51.972;21.204;2022-09-03T14:52:19;4.40;;;1.40;;
50745;SDS011;36711;51.972;21.204;2022-09-03T14:55:00;1.90;;;1.10;;
50745;SDS011;36711;51.972;21.204;2022-09-03T15:00:17;3.30;;;1.30;;
50745;SDS011;36711;51.972;21.204;2022-09-03T15:03:02;3.20;;;1.20;;
50745;SDS011;36711;51.972;21.204;2022-09-03T15:08:07;5.20;;;1.10;;
50745;SDS011;36711;51.972;21.204;2022-09-03T15:10:47;3.30;;;1.00;;
50745;SDS011;36711;51.972;21.204;2022-09-03T15:13:32;7.70;;;1.20;;
50745;SDS011;36711;51.972;21.204;2022-09-03T15:18:45;2.30;;;1.20;;
50745;SDS011;36711;51.972;21.204;2022-09-03T15:36:59;2.70;;;1.10;;
50745;SDS011;36711;51.972;21.204;2022-09-03T15:39:34;2.70;;;1.20;;
50745;SDS011;36711;51.972;21.204;2022-09-03T15:42:09;19.90;;;1.50;;
50745;SDS011;36711;51.972;21.204;2022-09-03T15:44:41;5.40;;;1.20;;
50745;SDS011;36711;51.972;21.204;2022-09-03T15:50:28;3.10;;;0.80;;
50745;SDS011;36711;51.972;21.204;2022-09-03T16:00:56;4.10;;;1.20;;
50745;SDS011;36711;51.972;21.204;2022-09-03T16:03:37;3.30;;;1.10;;
50745;SDS011;36711;51.972;21.204;2022-09-03T16:06:20;1.20;;;0.80;;
50745;SDS011;36711;51.972;21.204;2022-09-03T16:08:58;3.20;;;1.20;;
50745;SDS011;36711;51.972;21.204;2022-09-03T16:11:40;3.10;;;1.10;;
50745;SDS011;36711;51.972;21.204;2022-09-03T16:14:12;5.50;;;1.30;;
50745;SDS011;36711;51.972;21.204;2022-09-03T16:19:53;7.20;;;1.30;;
50745;SDS011;36711;51.972;21.204;2022-09-03T16:22:30;7.00;;;1.30;;
50745;SDS011;36711;51.972;21.204;2022-09-03T16:25:11;13.10;;;1.60;;
50745;SDS011;36711;51.972;21.204;2022-09-03T16:27:51;18.50;;;1.90;;
50745;SDS011;36711;51.972;21.204;2022-09-03T16:33:19;4.70;;;1.40;;
50745;SDS011;36711;51.972;21.204;2022-09-03T16:36:00;9.00;;;1.60;;
50745;SDS011;36711;51.972;21.204;2022-09-03T16:38:45;3.40;;;1.30;;
50745;SDS011;36711;51.972;21.204;2022-09-03T16:41:32;5.40;;;1.50;;
50745;SDS011;36711;51.972;21.204;2022-09-03T16:49:24;1.60;;;1.00;;
50745;SDS011;36711;51.972;21.204;2022-09-03T16:52:20;17.80;;;1.40;;
50745;SDS011;36711;51.972;21.204;2022-09-03T16:55:05;15.70;;;1.10;;
50745;SDS011;36711;51.972;21.204;2022-09-03T17:00:15;8.90;;;1.40;;
50745;SDS011;36711;51.972;21.204;2022-09-03T17:02:47;6.80;;;1.10;;
50745;SDS011;36711;51.972;21.204;2022-09-03T17:05:26;2.50;;;1.30;;
50745;SDS011;36711;51.972;21.204;2022-09-03T17:10:38;24.40;;;1.80;;
50745;SDS011;36711;51.972;21.204;2022-09-03T17:15:50;3.80;;;1.20;;
50745;SDS011;36711;51.972;21.204;2022-09-03T17:21:00;3.00;;;1.20;;
50745;SDS011;36711;51.972;21.204;2022-09-03T17:42:48;5.90;;;1.60;;
50745;SDS011;36711;51.972;21.204;2022-09-03T17:48:10;13.00;;;2.30;;
50745;SDS011;36711;51.972;21.204;2022-09-03T17:53:18;16.60;;;4.80;;
50745;SDS011;36711;51.972;21.204;2022-09-03T17:55:59;16.00;;;3.70;;
50745;SDS011;36711;51.972;21.204;2022-09-03T17:58:32;10.90;;;4.00;;
50745;SDS011;36711;51.972;21.204;2022-09-03T18:06:10;12.80;;;3.60;;
50745;SDS011;36711;51.972;21.204;2022-09-03T18:12:13;18.30;;;6.00;;
50745;SDS011;36711;51.972;21.204;2022-09-03T18:14:48;14.70;;;6.70;;
50745;SDS011;36711;51.972;21.204;2022-09-03T18:17:21;19.80;;;6.70;;
50745;SDS011;36711;51.972;21.204;2022-09-03T18:19:53;15.60;;;5.90;;
50745;SDS011;36711;51.972;21.204;2022-09-03T18:25:43;5.90;;;2.70;;
50745;SDS011;36711;51.972;21.204;2022-09-03T18:28:34;10.30;;;3.00;;
50745;SDS011;36711;51.972;21.204;2022-09-03T18:31:21;8.70;;;3.00;;
50745;SDS011;36711;51.972;21.204;2022-09-03T18:34:08;9.30;;;2.50;;
50745;SDS011;36711;51.972;21.204;2022-09-03T18:36:56;14.00;;;2.60;;
50745;SDS011;36711;51.972;21.204;2022-09-03T18:39:46;8.50;;;3.40;;
50745;SDS011;36711;51.972;21.204;2022-09-03T18:42:54;7.50;;;4.40;;
50745;SDS011;36711;51.972;21.204;2022-09-03T18:52:08;15.40;;;4.90;;
50745;SDS011;36711;51.972;21.204;2022-09-03T18:55:10;14.30;;;5.20;;
50745;SDS011;36711;51.972;21.204;2022-09-03T18:58:10;9.10;;;5.40;;
50745;SDS011;36711;51.972;21.204;2022-09-03T19:01:00;16.10;;;5.60;;
50745;SDS011;36711;51.972;21.204;2022-09-03T19:16:02;17.20;;;7.00;;
50745;SDS011;36711;51.972;21.204;2022-09-03T19:21:42;18.00;;;7.70;;
50745;SDS011;36711;51.972;21.204;2022-09-03T19:24:30;17.30;;;7.80;;
50745;SDS011;36711;51.972;21.204;2022-09-03T19:30:28;19.10;;;8.80;;
50745;SDS011;36711;51.972;21.204;2022-09-03T19:33:36;19.70;;;10.30;;
50745;SDS011;36711;51.972;21.204;2022-09-03T19:36:26;25.20;;;10.20;;
50745;SDS011;36711;51.972;21.204;2022-09-03T19:54:01;21.40;;;7.70;;
50745;SDS011;36711;51.972;21.204;2022-09-03T19:56:49;22.40;;;8.70;;
50745;SDS011;36711;51.972;21.204;2022-09-03T19:59:37;23.30;;;8.40;;
50745;SDS011;36711;51.972;21.204;2022-09-03T20:02:24;17.80;;;8.10;;